sensor_id;sensor_type;location;lat;lon;timestamp;P1;durP1;ratioP1;P2;durP2;ratioP2
15425;SDS011;7812;50.072;7.036;2022-07-01T00:01:37;1.63;;;0.80;;
15425;SDS011;7812;50.072;7.036;2022-07-01T00:04:05;0.70;;;0.70;;
15425;SDS011;7812;50.072;7.036;2022-07-01T00:06:31;1.53;;;0.70;;
15425;SDS011;7812;50.072;7.036;2022-07-01T00:08:57;1.70;;;0.87;;
15425;SDS011;7812;50.072;7.036;2022-07-01T00:11:22;0.80;;;0.80;;
15425;SDS011;7812;50.072;7.036;2022-07-01T00:13:48;0.50;;;0.50;;
15425;SDS011;7812;50.072;7.036;2022-07-01T00:16:14;1.03;;;0.80;;
15425;SDS011;7812;50.072;7.036;2022-07-01T00:18:40;2.80;;;0.60;;
15425;SDS011;7812;50.072;7.036;2022-07-01T00:21:06;0.80;;;0.80;;
15425;SDS011;7812;50.072;7.036;2022-07-01T00:23:31;1.27;;;0.70;;
15425;SDS011;7812;50.072;7.036;2022-07-01T00:25:57;1.23;;;0.90;;
15425;SDS011;7812;50.072;7.036;2022-07-01T00:28:23;0.70;;;0.70;;
15425;SDS011;7812;50.072;7.036;2022-07-01T00:30:49;1.03;;;0.90;;
15425;SDS011;7812;50.072;7.036;2022-07-01T00:33:15;0.80;;;0.70;;
15425;SDS011;7812;50.072;7.036;2022-07-01T00:35:41;2.50;;;0.90;;
15425;SDS011;7812;50.072;7.036;2022-07-01T00:38:07;0.93;;;0.63;;
15425;SDS011;7812;50.072;7.036;2022-07-01T00:40:32;0.80;;;0.73;;
15425;SDS011;7812;50.072;7.036;2022-07-01T00:42:58;1.43;;;0.80;;
15425;SDS011;7812;50.072;7.036;2022-07-01T00:45:24;1.37;;;0.67;;
15425;SDS011;7812;50.072;7.036;2022-07-01T00:47:49;1.80;;;0.80;;
15425;SDS011;7812;50.072;7.036;2022-07-01T00:50:16;0.60;;;0.60;;
15425;SDS011;7812;50.072;7.036;2022-07-01T00:52:43;1.10;;;0.80;;
15425;SDS011;7812;50.072;7.036;2022-07-01T00:55:13;0.80;;;0.70;;
15425;SDS011;7812;50.072;7.036;2022-07-01T00:57:40;1.27;;;0.67;;
15425;SDS011;7812;50.072;7.036;2022-07-01T01:00:08;0.70;;;0.70;;
15425;SDS011;7812;50.072;7.036;2022-07-01T01:02:39;0.70;;;0.70;;
15425;SDS011;7812;50.072;7.036;2022-07-01T01:05:06;0.80;;;0.70;;
15425;SDS011;7812;50.072;7.036;2022-07-01T01:07:33;0.67;;;0.60;;
15425;SDS011;7812;50.072;7.036;2022-07-01T01:10:00;0.70;;;0.70;;
15425;SDS011;7812;50.072;7.036;2022-07-01T01:12:27;0.90;;;0.70;;
15425;SDS011;7812;50.072;7.036;2022-07-01T01:14:53;1.33;;;0.80;;
15425;SDS011;7812;50.072;7.036;2022-07-01T01:17:21;1.03;;;0.70;;
15425;SDS011;7812;50.072;7.036;2022-07-01T01:19:50;0.80;;;0.80;;
15425;SDS011;7812;50.072;7.036;2022-07-01T01:22:16;1.50;;;0.70;;
15425;SDS011;7812;50.072;7.036;2022-07-01T01:24:44;0.80;;;0.70;;
15425;SDS011;7812;50.072;7.036;2022-07-01T01:27:12;0.60;;;0.60;;
15425;SDS011;7812;50.072;7.036;2022-07-01T01:29:39;0.70;;;0.70;;
15425;SDS011;7812;50.072;7.036;2022-07-01T01:32:05;1.33;;;0.90;;
15425;SDS011;7812;50.072;7.036;2022-07-01T01:34:34;1.27;;;0.80;;
15425;SDS011;7812;50.072;7.036;2022-07-01T01:37:08;0.70;;;0.70;;
15425;SDS011;7812;50.072;7.036;2022-07-01T01:39:34;0.67;;;0.60;;
15425;SDS011;7812;50.072;7.036;2022-07-01T01:42:03;0.80;;;0.80;;
15425;SDS011;7812;50.072;7.036;2022-07-01T01:44:30;1.10;;;0.90;;
15425;SDS011;7812;50.072;7.036;2022-07-01T01:46:57;0.93;;;0.67;;
15425;SDS011;7812;50.072;7.036;2022-07-01T01:49:23;0.93;;;0.70;;
15425;SDS011;7812;50.072;7.036;2022-07-01T01:51:49;3.37;;;0.80;;
15425;SDS011;7812;50.072;7.036;2022-07-01T01:54:15;1.53;;;0.93;;
15425;SDS011;7812;50.072;7.036;2022-07-01T01:56:41;1.27;;;0.87;;
15425;SDS011;7812;50.072;7.036;2022-07-01T01:59:06;1.53;;;0.70;;
15425;SDS011;7812;50.072;7.036;2022-07-01T02:01:32;1.40;;;0.80;;
15425;SDS011;7812;50.072;7.036;2022-07-01T02:03:58;1.00;;;0.90;;
15425;SDS011;7812;50.072;7.036;2022-07-01T02:06:24;0.80;;;0.60;;
15425;SDS011;7812;50.072;7.036;2022-07-01T02:08:50;1.43;;;0.70;;
15425;SDS011;7812;50.072;7.036;2022-07-01T02:11:16;0.70;;;0.70;;
15425;SDS011;7812;50.072;7.036;2022-07-01T02:13:42;2.50;;;0.70;;
15425;SDS011;7812;50.072;7.036;2022-07-01T02:16:09;0.70;;;0.70;;
15425;SDS011;7812;50.072;7.036;2022-07-01T02:18:35;0.90;;;0.80;;
15425;SDS011;7812;50.072;7.036;2022-07-01T02:21:01;1.13;;;0.70;;
15425;SDS011;7812;50.072;7.036;2022-07-01T02:23:27;2.50;;;0.90;;
15425;SDS011;7812;50.072;7.036;2022-07-01T02:25:54;2.23;;;0.90;;
15425;SDS011;7812;50.072;7.036;2022-07-01T02:28:20;1.17;;;0.80;;
15425;SDS011;7812;50.072;7.036;2022-07-01T02:30:46;1.83;;;0.63;;
15425;SDS011;7812;50.072;7.036;2022-07-01T02:33:12;1.63;;;0.80;;
15425;SDS011;7812;50.072;7.036;2022-07-01T02:35:38;1.47;;;0.60;;
15425;SDS011;7812;50.072;7.036;2022-07-01T02:38:05;1.40;;;1.10;;
15425;SDS011;7812;50.072;7.036;2022-07-01T02:40:32;2.80;;;1.20;;
15425;SDS011;7812;50.072;7.036;2022-07-01T02:42:59;1.67;;;1.20;;
15425;SDS011;7812;50.072;7.036;2022-07-01T02:45:25;1.80;;;1.10;;
15425;SDS011;7812;50.072;7.036;2022-07-01T02:47:51;0.90;;;0.90;;
15425;SDS011;7812;50.072;7.036;2022-07-01T02:50:17;1.20;;;1.10;;
15425;SDS011;7812;50.072;7.036;2022-07-01T02:52:44;1.50;;;1.40;;
15425;SDS011;7812;50.072;7.036;2022-07-01T02:55:10;2.63;;;2.20;;
15425;SDS011;7812;50.072;7.036;2022-07-01T02:57:37;1.80;;;1.70;;
15425;SDS011;7812;50.072;7.036;2022-07-01T03:00:08;2.40;;;1.93;;
15425;SDS011;7812;50.072;7.036;2022-07-01T03:02:36;2.13;;;1.83;;
15425;SDS011;7812;50.072;7.036;2022-07-01T03:05:03;3.27;;;1.63;;
15425;SDS011;7812;50.072;7.036;2022-07-01T03:07:29;1.60;;;1.40;;
15425;SDS011;7812;50.072;7.036;2022-07-01T03:09:55;1.60;;;1.50;;
15425;SDS011;7812;50.072;7.036;2022-07-01T03:12:21;2.13;;;1.93;;
15425;SDS011;7812;50.072;7.036;2022-07-01T03:14:54;3.00;;;2.70;;
15425;SDS011;7812;50.072;7.036;2022-07-01T03:17:20;3.30;;;3.00;;
15425;SDS011;7812;50.072;7.036;2022-07-01T03:19:46;2.90;;;2.60;;
15425;SDS011;7812;50.072;7.036;2022-07-01T03:22:12;4.23;;;2.40;;
15425;SDS011;7812;50.072;7.036;2022-07-01T03:24:38;2.87;;;2.60;;
15425;SDS011;7812;50.072;7.036;2022-07-01T03:27:04;3.83;;;2.87;;
15425;SDS011;7812;50.072;7.036;2022-07-01T03:29:30;3.13;;;2.50;;
15425;SDS011;7812;50.072;7.036;2022-07-01T03:31:55;4.20;;;2.63;;
15425;SDS011;7812;50.072;7.036;2022-07-01T03:34:21;2.60;;;2.27;;
15425;SDS011;7812;50.072;7.036;2022-07-01T03:36:47;2.27;;;2.07;;
15425;SDS011;7812;50.072;7.036;2022-07-01T03:39:13;2.87;;;2.40;;
15425;SDS011;7812;50.072;7.036;2022-07-01T03:41:39;3.47;;;2.30;;
15425;SDS011;7812;50.072;7.036;2022-07-01T03:44:05;3.43;;;2.20;;
15425;SDS011;7812;50.072;7.036;2022-07-01T03:46:31;3.03;;;2.30;;
15425;SDS011;7812;50.072;7.036;2022-07-01T03:48:58;3.20;;;2.23;;
15425;SDS011;7812;50.072;7.036;2022-07-01T03:51:23;2.73;;;2.47;;
15425;SDS011;7812;50.072;7.036;2022-07-01T03:53:49;2.50;;;2.30;;
15425;SDS011;7812;50.072;7.036;2022-07-01T03:56:33;3.63;;;2.30;;
15425;SDS011;7812;50.072;7.036;2022-07-01T03:58:59;2.60;;;2.40;;
15425;SDS011;7812;50.072;7.036;2022-07-01T04:01:25;2.43;;;2.10;;
15425;SDS011;7812;50.072;7.036;2022-07-01T04:03:51;2.40;;;2.10;;
15425;SDS011;7812;50.072;7.036;2022-07-01T04:06:16;3.50;;;2.47;;
15425;SDS011;7812;50.072;7.036;2022-07-01T04:08:43;4.27;;;2.23;;
15425;SDS011;7812;50.072;7.036;2022-07-01T04:11:09;2.20;;;1.90;;
15425;SDS011;7812;50.072;7.036;2022-07-01T04:13:36;2.40;;;2.10;;
15425;SDS011;7812;50.072;7.036;2022-07-01T04:16:02;3.73;;;2.10;;
15425;SDS011;7812;50.072;7.036;2022-07-01T04:18:29;3.50;;;2.50;;
15425;SDS011;7812;50.072;7.036;2022-07-01T04:20:55;2.83;;;2.37;;
15425;SDS011;7812;50.072;7.036;2022-07-01T04:23:39;2.77;;;2.40;;
15425;SDS011;7812;50.072;7.036;2022-07-01T04:26:05;2.50;;;2.30;;
15425;SDS011;7812;50.072;7.036;2022-07-01T04:28:31;6.10;;;2.17;;
15425;SDS011;7812;50.072;7.036;2022-07-01T04:30:57;2.77;;;2.30;;
15425;SDS011;7812;50.072;7.036;2022-07-01T04:33:23;2.73;;;2.07;;
15425;SDS011;7812;50.072;7.036;2022-07-01T04:35:49;3.40;;;2.57;;
15425;SDS011;7812;50.072;7.036;2022-07-01T04:38:15;3.60;;;2.50;;
15425;SDS011;7812;50.072;7.036;2022-07-01T04:40:40;3.87;;;2.90;;
15425;SDS011;7812;50.072;7.036;2022-07-01T04:43:26;3.63;;;2.50;;
15425;SDS011;7812;50.072;7.036;2022-07-01T04:45:53;2.73;;;2.50;;
15425;SDS011;7812;50.072;7.036;2022-07-01T04:48:19;2.93;;;2.60;;
15425;SDS011;7812;50.072;7.036;2022-07-01T04:50:45;3.93;;;2.43;;
15425;SDS011;7812;50.072;7.036;2022-07-01T04:53:12;2.97;;;2.40;;
15425;SDS011;7812;50.072;7.036;2022-07-01T04:55:38;4.57;;;2.17;;
15425;SDS011;7812;50.072;7.036;2022-07-01T04:58:04;3.10;;;2.37;;
15425;SDS011;7812;50.072;7.036;2022-07-01T05:00:29;5.43;;;2.27;;
15425;SDS011;7812;50.072;7.036;2022-07-01T05:02:55;2.73;;;2.50;;
15425;SDS011;7812;50.072;7.036;2022-07-01T05:05:21;4.07;;;2.67;;
15425;SDS011;7812;50.072;7.036;2022-07-01T05:07:47;3.67;;;2.57;;
15425;SDS011;7812;50.072;7.036;2022-07-01T05:10:13;2.50;;;2.30;;
15425;SDS011;7812;50.072;7.036;2022-07-01T05:12:38;2.33;;;2.10;;
15425;SDS011;7812;50.072;7.036;2022-07-01T05:15:04;2.73;;;2.43;;
15425;SDS011;7812;50.072;7.036;2022-07-01T05:17:32;2.47;;;2.20;;
15425;SDS011;7812;50.072;7.036;2022-07-01T05:20:17;3.03;;;1.90;;
15425;SDS011;7812;50.072;7.036;2022-07-01T05:23:02;2.47;;;2.27;;
15425;SDS011;7812;50.072;7.036;2022-07-01T05:25:28;6.80;;;2.13;;
15425;SDS011;7812;50.072;7.036;2022-07-01T05:27:54;3.40;;;2.20;;
15425;SDS011;7812;50.072;7.036;2022-07-01T05:30:20;3.83;;;2.00;;
15425;SDS011;7812;50.072;7.036;2022-07-01T05:32:46;4.07;;;2.17;;
15425;SDS011;7812;50.072;7.036;2022-07-01T05:35:12;4.03;;;1.80;;
15425;SDS011;7812;50.072;7.036;2022-07-01T05:37:39;1.90;;;1.70;;
15425;SDS011;7812;50.072;7.036;2022-07-01T05:40:05;4.00;;;1.87;;
15425;SDS011;7812;50.072;7.036;2022-07-01T05:42:32;2.00;;;1.70;;
15425;SDS011;7812;50.072;7.036;2022-07-01T05:44:58;2.63;;;2.10;;
15425;SDS011;7812;50.072;7.036;2022-07-01T05:47:23;3.20;;;2.20;;
15425;SDS011;7812;50.072;7.036;2022-07-01T05:49:49;2.90;;;2.13;;
15425;SDS011;7812;50.072;7.036;2022-07-01T05:52:15;2.20;;;1.93;;
15425;SDS011;7812;50.072;7.036;2022-07-01T05:54:41;2.90;;;2.10;;
15425;SDS011;7812;50.072;7.036;2022-07-01T05:57:07;2.27;;;2.00;;
15425;SDS011;7812;50.072;7.036;2022-07-01T05:59:33;2.40;;;1.87;;
15425;SDS011;7812;50.072;7.036;2022-07-01T06:01:59;2.30;;;1.70;;
15425;SDS011;7812;50.072;7.036;2022-07-01T06:04:24;2.93;;;2.10;;
15425;SDS011;7812;50.072;7.036;2022-07-01T06:06:50;1.93;;;1.73;;
15425;SDS011;7812;50.072;7.036;2022-07-01T06:09:16;2.80;;;2.10;;
15425;SDS011;7812;50.072;7.036;2022-07-01T06:11:41;3.53;;;1.97;;
15425;SDS011;7812;50.072;7.036;2022-07-01T06:14:07;2.63;;;1.97;;
15425;SDS011;7812;50.072;7.036;2022-07-01T06:16:33;2.40;;;2.17;;
15425;SDS011;7812;50.072;7.036;2022-07-01T06:18:59;4.33;;;2.20;;
15425;SDS011;7812;50.072;7.036;2022-07-01T06:21:25;3.60;;;2.07;;
15425;SDS011;7812;50.072;7.036;2022-07-01T06:23:51;2.73;;;1.90;;
15425;SDS011;7812;50.072;7.036;2022-07-01T06:26:16;2.07;;;1.83;;
15425;SDS011;7812;50.072;7.036;2022-07-01T06:28:42;2.83;;;1.97;;
15425;SDS011;7812;50.072;7.036;2022-07-01T06:31:08;4.20;;;2.20;;
15425;SDS011;7812;50.072;7.036;2022-07-01T06:33:33;1.90;;;1.80;;
15425;SDS011;7812;50.072;7.036;2022-07-01T06:35:59;3.53;;;2.10;;
15425;SDS011;7812;50.072;7.036;2022-07-01T06:38:25;2.80;;;1.67;;
15425;SDS011;7812;50.072;7.036;2022-07-01T06:40:51;2.57;;;1.60;;
15425;SDS011;7812;50.072;7.036;2022-07-01T06:43:35;2.87;;;2.20;;
15425;SDS011;7812;50.072;7.036;2022-07-01T06:46:01;2.10;;;1.90;;
15425;SDS011;7812;50.072;7.036;2022-07-01T06:48:29;2.57;;;2.00;;
15425;SDS011;7812;50.072;7.036;2022-07-01T06:50:54;2.23;;;1.80;;
15425;SDS011;7812;50.072;7.036;2022-07-01T06:53:20;2.27;;;1.90;;
15425;SDS011;7812;50.072;7.036;2022-07-01T06:55:46;3.07;;;1.80;;
15425;SDS011;7812;50.072;7.036;2022-07-01T06:58:12;3.27;;;1.90;;
15425;SDS011;7812;50.072;7.036;2022-07-01T07:00:38;3.50;;;1.87;;
15425;SDS011;7812;50.072;7.036;2022-07-01T07:03:03;3.87;;;1.77;;
15425;SDS011;7812;50.072;7.036;2022-07-01T07:05:29;3.83;;;1.50;;
15425;SDS011;7812;50.072;7.036;2022-07-01T07:07:56;2.17;;;1.67;;
15425;SDS011;7812;50.072;7.036;2022-07-01T07:10:22;1.70;;;1.60;;
15425;SDS011;7812;50.072;7.036;2022-07-01T07:12:48;1.63;;;1.53;;
15425;SDS011;7812;50.072;7.036;2022-07-01T07:15:14;2.43;;;1.70;;
15425;SDS011;7812;50.072;7.036;2022-07-01T07:17:40;2.83;;;1.57;;
15425;SDS011;7812;50.072;7.036;2022-07-01T07:20:07;2.37;;;1.50;;
15425;SDS011;7812;50.072;7.036;2022-07-01T07:22:33;2.27;;;1.70;;
15425;SDS011;7812;50.072;7.036;2022-07-01T07:24:59;2.00;;;1.40;;
15425;SDS011;7812;50.072;7.036;2022-07-01T07:27:25;1.83;;;1.33;;
15425;SDS011;7812;50.072;7.036;2022-07-01T07:29:52;1.80;;;1.53;;
15425;SDS011;7812;50.072;7.036;2022-07-01T07:32:18;1.53;;;1.37;;
15425;SDS011;7812;50.072;7.036;2022-07-01T07:34:43;3.43;;;1.47;;
15425;SDS011;7812;50.072;7.036;2022-07-01T07:37:10;3.53;;;1.30;;
15425;SDS011;7812;50.072;7.036;2022-07-01T07:39:36;2.80;;;1.50;;
15425;SDS011;7812;50.072;7.036;2022-07-01T07:42:02;3.30;;;1.40;;
15425;SDS011;7812;50.072;7.036;2022-07-01T07:44:29;3.10;;;1.40;;
15425;SDS011;7812;50.072;7.036;2022-07-01T07:46:55;2.03;;;1.30;;
15425;SDS011;7812;50.072;7.036;2022-07-01T07:49:22;1.77;;;1.37;;
15425;SDS011;7812;50.072;7.036;2022-07-01T07:51:49;2.27;;;1.47;;
15425;SDS011;7812;50.072;7.036;2022-07-01T07:54:16;6.57;;;1.57;;
15425;SDS011;7812;50.072;7.036;2022-07-01T07:56:42;2.27;;;1.13;;
15425;SDS011;7812;50.072;7.036;2022-07-01T07:59:08;2.10;;;1.00;;
15425;SDS011;7812;50.072;7.036;2022-07-01T08:01:34;2.27;;;1.30;;
15425;SDS011;7812;50.072;7.036;2022-07-01T08:04:00;2.47;;;1.40;;
15425;SDS011;7812;50.072;7.036;2022-07-01T08:06:26;2.50;;;1.33;;
15425;SDS011;7812;50.072;7.036;2022-07-01T08:08:53;1.83;;;1.40;;
15425;SDS011;7812;50.072;7.036;2022-07-01T08:11:20;1.17;;;1.03;;
15425;SDS011;7812;50.072;7.036;2022-07-01T08:13:46;1.57;;;1.17;;
15425;SDS011;7812;50.072;7.036;2022-07-01T08:16:11;1.13;;;1.00;;
15425;SDS011;7812;50.072;7.036;2022-07-01T08:18:38;3.03;;;1.13;;
15425;SDS011;7812;50.072;7.036;2022-07-01T08:21:03;1.67;;;0.97;;
15425;SDS011;7812;50.072;7.036;2022-07-01T08:23:31;1.83;;;0.90;;
15425;SDS011;7812;50.072;7.036;2022-07-01T08:25:56;4.00;;;1.00;;
15425;SDS011;7812;50.072;7.036;2022-07-01T08:28:22;2.53;;;1.10;;
15425;SDS011;7812;50.072;7.036;2022-07-01T08:30:48;2.20;;;1.07;;
15425;SDS011;7812;50.072;7.036;2022-07-01T08:33:14;1.67;;;1.20;;
15425;SDS011;7812;50.072;7.036;2022-07-01T08:35:40;2.40;;;1.10;;
15425;SDS011;7812;50.072;7.036;2022-07-01T08:38:06;2.63;;;1.00;;
15425;SDS011;7812;50.072;7.036;2022-07-01T08:40:32;1.70;;;1.00;;
15425;SDS011;7812;50.072;7.036;2022-07-01T08:43:01;3.37;;;0.90;;
15425;SDS011;7812;50.072;7.036;2022-07-01T08:45:33;1.40;;;1.13;;
15425;SDS011;7812;50.072;7.036;2022-07-01T08:48:04;1.27;;;0.90;;
15425;SDS011;7812;50.072;7.036;2022-07-01T08:50:31;2.20;;;1.17;;
15425;SDS011;7812;50.072;7.036;2022-07-01T08:53:04;2.97;;;1.17;;
15425;SDS011;7812;50.072;7.036;2022-07-01T08:55:30;3.90;;;0.90;;
15425;SDS011;7812;50.072;7.036;2022-07-01T08:57:57;1.53;;;0.90;;
15425;SDS011;7812;50.072;7.036;2022-07-01T09:00:30;1.60;;;0.80;;
15425;SDS011;7812;50.072;7.036;2022-07-01T09:02:57;3.90;;;1.10;;
15425;SDS011;7812;50.072;7.036;2022-07-01T09:05:28;1.20;;;0.80;;
15425;SDS011;7812;50.072;7.036;2022-07-01T09:07:57;2.97;;;1.00;;
15425;SDS011;7812;50.072;7.036;2022-07-01T09:10:23;2.40;;;1.30;;
15425;SDS011;7812;50.072;7.036;2022-07-01T09:12:49;2.57;;;0.83;;
15425;SDS011;7812;50.072;7.036;2022-07-01T09:15:22;1.27;;;1.00;;
15425;SDS011;7812;50.072;7.036;2022-07-01T09:17:56;4.57;;;1.10;;
15425;SDS011;7812;50.072;7.036;2022-07-01T09:20:29;2.90;;;0.90;;
15425;SDS011;7812;50.072;7.036;2022-07-01T09:22:57;1.70;;;0.73;;
15425;SDS011;7812;50.072;7.036;2022-07-01T09:25:29;4.13;;;1.00;;
15425;SDS011;7812;50.072;7.036;2022-07-01T09:28:04;1.47;;;0.70;;
15425;SDS011;7812;50.072;7.036;2022-07-01T09:30:38;3.53;;;0.80;;
15425;SDS011;7812;50.072;7.036;2022-07-01T09:33:06;1.83;;;0.90;;
15425;SDS011;7812;50.072;7.036;2022-07-01T09:35:44;1.10;;;0.70;;
15425;SDS011;7812;50.072;7.036;2022-07-01T09:38:12;2.33;;;0.77;;
15425;SDS011;7812;50.072;7.036;2022-07-01T09:40:55;1.60;;;0.90;;
15425;SDS011;7812;50.072;7.036;2022-07-01T09:43:24;2.10;;;0.80;;
15425;SDS011;7812;50.072;7.036;2022-07-01T09:45:54;2.00;;;1.00;;
15425;SDS011;7812;50.072;7.036;2022-07-01T09:48:47;1.20;;;0.80;;
15425;SDS011;7812;50.072;7.036;2022-07-01T09:51:12;1.10;;;0.63;;
15425;SDS011;7812;50.072;7.036;2022-07-01T09:53:40;1.30;;;0.70;;
15425;SDS011;7812;50.072;7.036;2022-07-01T09:56:07;2.40;;;0.80;;
15425;SDS011;7812;50.072;7.036;2022-07-01T09:58:33;2.13;;;0.77;;
15425;SDS011;7812;50.072;7.036;2022-07-01T10:01:00;0.70;;;0.70;;
15425;SDS011;7812;50.072;7.036;2022-07-01T10:03:28;1.63;;;0.70;;
15425;SDS011;7812;50.072;7.036;2022-07-01T10:14:08;1.13;;;0.90;;
15425;SDS011;7812;50.072;7.036;2022-07-01T10:16:36;2.30;;;0.60;;
15425;SDS011;7812;50.072;7.036;2022-07-01T10:21:57;1.00;;;0.70;;
15425;SDS011;7812;50.072;7.036;2022-07-01T10:24:27;2.57;;;0.77;;
15425;SDS011;7812;50.072;7.036;2022-07-01T10:26:59;1.20;;;0.73;;
15425;SDS011;7812;50.072;7.036;2022-07-01T10:31:53;0.93;;;0.60;;
15425;SDS011;7812;50.072;7.036;2022-07-01T10:34:19;0.90;;;0.50;;
15425;SDS011;7812;50.072;7.036;2022-07-01T10:36:54;0.93;;;0.57;;
15425;SDS011;7812;50.072;7.036;2022-07-01T10:39:27;1.17;;;0.80;;
15425;SDS011;7812;50.072;7.036;2022-07-01T10:44:20;1.17;;;0.67;;
15425;SDS011;7812;50.072;7.036;2022-07-01T10:46:52;1.70;;;0.43;;
15425;SDS011;7812;50.072;7.036;2022-07-01T10:52:06;1.87;;;0.63;;
15425;SDS011;7812;50.072;7.036;2022-07-01T11:05:13;1.67;;;0.60;;
15425;SDS011;7812;50.072;7.036;2022-07-01T11:07:44;2.17;;;0.80;;
15425;SDS011;7812;50.072;7.036;2022-07-01T11:10:11;0.77;;;0.60;;
15425;SDS011;7812;50.072;7.036;2022-07-01T11:12:40;1.00;;;0.70;;
15425;SDS011;7812;50.072;7.036;2022-07-01T11:15:09;1.43;;;0.70;;
15425;SDS011;7812;50.072;7.036;2022-07-01T11:17:41;1.17;;;0.70;;
15425;SDS011;7812;50.072;7.036;2022-07-01T11:20:08;0.63;;;0.60;;
15425;SDS011;7812;50.072;7.036;2022-07-01T11:22:35;0.80;;;0.60;;
15425;SDS011;7812;50.072;7.036;2022-07-01T11:25:02;1.73;;;0.57;;
15425;SDS011;7812;50.072;7.036;2022-07-01T11:27:29;1.90;;;0.60;;
15425;SDS011;7812;50.072;7.036;2022-07-01T11:29:57;1.90;;;0.80;;
15425;SDS011;7812;50.072;7.036;2022-07-01T11:32:26;1.93;;;0.70;;
15425;SDS011;7812;50.072;7.036;2022-07-01T11:34:56;0.90;;;0.60;;
15425;SDS011;7812;50.072;7.036;2022-07-01T11:37:31;1.23;;;0.70;;
15425;SDS011;7812;50.072;7.036;2022-07-01T11:40:18;1.10;;;0.70;;
15425;SDS011;7812;50.072;7.036;2022-07-01T11:42:44;1.30;;;0.63;;
15425;SDS011;7812;50.072;7.036;2022-07-01T11:45:31;2.10;;;0.40;;
15425;SDS011;7812;50.072;7.036;2022-07-01T11:47:57;2.00;;;0.60;;
15425;SDS011;7812;50.072;7.036;2022-07-01T11:50:22;1.20;;;0.60;;
15425;SDS011;7812;50.072;7.036;2022-07-01T11:52:52;1.97;;;0.50;;
15425;SDS011;7812;50.072;7.036;2022-07-01T11:55:19;0.73;;;0.50;;
15425;SDS011;7812;50.072;7.036;2022-07-01T11:57:45;1.47;;;0.60;;
15425;SDS011;7812;50.072;7.036;2022-07-01T12:00:14;1.37;;;0.60;;
15425;SDS011;7812;50.072;7.036;2022-07-01T12:02:40;0.60;;;0.40;;
15425;SDS011;7812;50.072;7.036;2022-07-01T12:05:06;0.73;;;0.60;;
15425;SDS011;7812;50.072;7.036;2022-07-01T12:07:32;2.30;;;0.60;;
15425;SDS011;7812;50.072;7.036;2022-07-01T12:09:58;2.93;;;0.60;;
15425;SDS011;7812;50.072;7.036;2022-07-01T12:12:26;2.07;;;0.70;;
15425;SDS011;7812;50.072;7.036;2022-07-01T12:14:56;0.83;;;0.47;;
15425;SDS011;7812;50.072;7.036;2022-07-01T12:17:26;1.80;;;0.67;;
15425;SDS011;7812;50.072;7.036;2022-07-01T12:19:53;1.50;;;0.60;;
15425;SDS011;7812;50.072;7.036;2022-07-01T12:22:20;1.63;;;0.50;;
15425;SDS011;7812;50.072;7.036;2022-07-01T12:24:52;1.17;;;0.60;;
15425;SDS011;7812;50.072;7.036;2022-07-01T12:27:36;0.70;;;0.60;;
15425;SDS011;7812;50.072;7.036;2022-07-01T12:30:04;0.70;;;0.50;;
15425;SDS011;7812;50.072;7.036;2022-07-01T12:32:34;2.50;;;0.70;;
15425;SDS011;7812;50.072;7.036;2022-07-01T12:35:02;2.03;;;0.90;;
15425;SDS011;7812;50.072;7.036;2022-07-01T12:37:55;0.70;;;0.50;;
15425;SDS011;7812;50.072;7.036;2022-07-01T12:40:22;2.10;;;0.60;;
15425;SDS011;7812;50.072;7.036;2022-07-01T12:42:54;1.23;;;0.70;;
15425;SDS011;7812;50.072;7.036;2022-07-01T12:45:22;1.73;;;0.60;;
15425;SDS011;7812;50.072;7.036;2022-07-01T12:47:50;1.40;;;0.73;;
15425;SDS011;7812;50.072;7.036;2022-07-01T12:53:05;3.10;;;0.73;;
15425;SDS011;7812;50.072;7.036;2022-07-01T12:58:05;1.13;;;0.60;;
15425;SDS011;7812;50.072;7.036;2022-07-01T13:00:32;3.43;;;0.70;;
15425;SDS011;7812;50.072;7.036;2022-07-01T13:02:59;0.87;;;0.60;;
15425;SDS011;7812;50.072;7.036;2022-07-01T13:05:27;2.10;;;0.70;;
15425;SDS011;7812;50.072;7.036;2022-07-01T13:07:54;0.90;;;0.70;;
15425;SDS011;7812;50.072;7.036;2022-07-01T13:10:20;1.93;;;0.80;;
15425;SDS011;7812;50.072;7.036;2022-07-01T13:12:46;2.30;;;0.73;;
15425;SDS011;7812;50.072;7.036;2022-07-01T13:15:16;1.27;;;0.90;;
15425;SDS011;7812;50.072;7.036;2022-07-01T13:17:42;1.20;;;0.70;;
15425;SDS011;7812;50.072;7.036;2022-07-01T13:20:09;2.00;;;0.63;;
15425;SDS011;7812;50.072;7.036;2022-07-01T13:22:36;1.60;;;0.60;;
15425;SDS011;7812;50.072;7.036;2022-07-01T13:25:03;2.00;;;0.80;;
15425;SDS011;7812;50.072;7.036;2022-07-01T13:27:29;1.20;;;0.60;;
15425;SDS011;7812;50.072;7.036;2022-07-01T13:29:55;1.37;;;0.53;;
15425;SDS011;7812;50.072;7.036;2022-07-01T13:32:21;0.77;;;0.40;;
15425;SDS011;7812;50.072;7.036;2022-07-01T13:34:47;1.50;;;0.70;;
15425;SDS011;7812;50.072;7.036;2022-07-01T13:37:13;0.97;;;0.53;;
15425;SDS011;7812;50.072;7.036;2022-07-01T13:39:39;1.10;;;0.60;;
15425;SDS011;7812;50.072;7.036;2022-07-01T13:42:05;0.83;;;0.57;;
15425;SDS011;7812;50.072;7.036;2022-07-01T13:44:30;0.50;;;0.43;;
15425;SDS011;7812;50.072;7.036;2022-07-01T13:46:56;0.50;;;0.50;;
15425;SDS011;7812;50.072;7.036;2022-07-01T13:49:22;1.20;;;0.70;;
15425;SDS011;7812;50.072;7.036;2022-07-01T13:51:48;1.30;;;0.60;;
15425;SDS011;7812;50.072;7.036;2022-07-01T13:54:13;1.27;;;0.63;;
15425;SDS011;7812;50.072;7.036;2022-07-01T13:56:39;0.63;;;0.40;;
15425;SDS011;7812;50.072;7.036;2022-07-01T13:59:06;2.10;;;0.70;;
15425;SDS011;7812;50.072;7.036;2022-07-01T14:01:33;0.50;;;0.50;;
15425;SDS011;7812;50.072;7.036;2022-07-01T14:04:00;2.00;;;0.70;;
15425;SDS011;7812;50.072;7.036;2022-07-01T14:06:26;0.90;;;0.60;;
15425;SDS011;7812;50.072;7.036;2022-07-01T14:08:52;1.07;;;0.70;;
15425;SDS011;7812;50.072;7.036;2022-07-01T14:11:17;1.77;;;0.70;;
15425;SDS011;7812;50.072;7.036;2022-07-01T14:13:43;2.37;;;0.70;;
15425;SDS011;7812;50.072;7.036;2022-07-01T14:16:09;5.03;;;1.00;;
15425;SDS011;7812;50.072;7.036;2022-07-01T14:18:35;1.13;;;0.60;;
15425;SDS011;7812;50.072;7.036;2022-07-01T14:21:02;1.07;;;0.70;;
15425;SDS011;7812;50.072;7.036;2022-07-01T14:23:29;0.83;;;0.60;;
15425;SDS011;7812;50.072;7.036;2022-07-01T14:25:55;1.27;;;0.60;;
15425;SDS011;7812;50.072;7.036;2022-07-01T14:28:21;0.70;;;0.60;;
15425;SDS011;7812;50.072;7.036;2022-07-01T14:30:47;2.10;;;0.50;;
15425;SDS011;7812;50.072;7.036;2022-07-01T14:33:14;1.20;;;0.67;;
15425;SDS011;7812;50.072;7.036;2022-07-01T14:35:40;0.50;;;0.50;;
15425;SDS011;7812;50.072;7.036;2022-07-01T14:38:06;0.50;;;0.37;;
15425;SDS011;7812;50.072;7.036;2022-07-01T14:40:32;1.87;;;0.50;;
15425;SDS011;7812;50.072;7.036;2022-07-01T14:42:59;1.60;;;0.70;;
15425;SDS011;7812;50.072;7.036;2022-07-01T14:45:25;1.93;;;0.60;;
15425;SDS011;7812;50.072;7.036;2022-07-01T14:47:50;0.60;;;0.50;;
15425;SDS011;7812;50.072;7.036;2022-07-01T14:50:16;2.87;;;0.50;;
15425;SDS011;7812;50.072;7.036;2022-07-01T14:52:42;1.23;;;0.60;;
15425;SDS011;7812;50.072;7.036;2022-07-01T14:55:08;0.87;;;0.53;;
15425;SDS011;7812;50.072;7.036;2022-07-01T14:57:34;1.10;;;0.57;;
15425;SDS011;7812;50.072;7.036;2022-07-01T15:00:01;0.87;;;0.63;;
15425;SDS011;7812;50.072;7.036;2022-07-01T15:02:28;3.33;;;0.73;;
15425;SDS011;7812;50.072;7.036;2022-07-01T15:04:55;1.43;;;0.60;;
15425;SDS011;7812;50.072;7.036;2022-07-01T15:07:21;0.93;;;0.63;;
15425;SDS011;7812;50.072;7.036;2022-07-01T15:09:49;1.00;;;0.60;;
15425;SDS011;7812;50.072;7.036;2022-07-01T15:12:15;1.63;;;0.50;;
15425;SDS011;7812;50.072;7.036;2022-07-01T15:14:41;1.87;;;0.60;;
15425;SDS011;7812;50.072;7.036;2022-07-01T15:17:07;1.83;;;0.53;;
15425;SDS011;7812;50.072;7.036;2022-07-01T15:19:33;1.40;;;0.67;;
15425;SDS011;7812;50.072;7.036;2022-07-01T15:21:59;1.60;;;0.80;;
15425;SDS011;7812;50.072;7.036;2022-07-01T15:24:25;6.03;;;0.87;;
15425;SDS011;7812;50.072;7.036;2022-07-01T15:26:51;0.70;;;0.60;;
15425;SDS011;7812;50.072;7.036;2022-07-01T15:29:18;1.67;;;0.70;;
15425;SDS011;7812;50.072;7.036;2022-07-01T15:31:44;1.73;;;0.80;;
15425;SDS011;7812;50.072;7.036;2022-07-01T15:34:10;4.17;;;0.90;;
15425;SDS011;7812;50.072;7.036;2022-07-01T15:36:36;1.80;;;0.70;;